sensor_id;sensor_type;location;lat;lon;timestamp;P1;durP1;ratioP1;P2;durP2;ratioP2
23952;SDS011;12163;49.316;6.092;2023-04-28T00:01:15;6.30;;;4.20;;
23952;SDS011;12163;49.316;6.092;2023-04-28T00:03:42;9.00;;;4.68;;
23952;SDS011;12163;49.316;6.092;2023-04-28T00:06:09;11.10;;;4.70;;
23952;SDS011;12163;49.316;6.092;2023-04-28T00:08:36;8.20;;;4.20;;
23952;SDS011;12163;49.316;6.092;2023-04-28T00:11:03;12.15;;;4.65;;
23952;SDS011;12163;49.316;6.092;2023-04-28T00:13:34;5.70;;;4.15;;
23952;SDS011;12163;49.316;6.092;2023-04-28T00:16:01;6.70;;;4.43;;
23952;SDS011;12163;49.316;6.092;2023-04-28T00:18:28;6.68;;;4.68;;
23952;SDS011;12163;49.316;6.092;2023-04-28T00:20:54;7.20;;;4.43;;
23952;SDS011;12163;49.316;6.092;2023-04-28T00:23:21;9.32;;;4.45;;
23952;SDS011;12163;49.316;6.092;2023-04-28T00:25:51;9.00;;;4.50;;
23952;SDS011;12163;49.316;6.092;2023-04-28T00:28:18;9.95;;;4.50;;
23952;SDS011;12163;49.316;6.092;2023-04-28T00:30:59;9.63;;;4.80;;
23952;SDS011;12163;49.316;6.092;2023-04-28T00:33:26;8.55;;;4.85;;
23952;SDS011;12163;49.316;6.092;2023-04-28T00:36:01;8.80;;;4.57;;
23952;SDS011;12163;49.316;6.092;2023-04-28T00:41:12;11.93;;;4.43;;
23952;SDS011;12163;49.316;6.092;2023-04-28T00:43:46;12.80;;;4.43;;
23952;SDS011;12163;49.316;6.092;2023-04-28T00:46:23;8.63;;;4.60;;
23952;SDS011;12163;49.316;6.092;2023-04-28T00:48:52;8.77;;;4.47;;
23952;SDS011;12163;49.316;6.092;2023-04-28T00:51:19;8.52;;;4.53;;
23952;SDS011;12163;49.316;6.092;2023-04-28T00:53:46;8.93;;;4.47;;
23952;SDS011;12163;49.316;6.092;2023-04-28T00:56:13;6.45;;;4.03;;
23952;SDS011;12163;49.316;6.092;2023-04-28T00:58:40;8.38;;;4.65;;
23952;SDS011;12163;49.316;6.092;2023-04-28T01:01:08;10.23;;;4.85;;
23952;SDS011;12163;49.316;6.092;2023-04-28T01:03:36;7.50;;;4.20;;
23952;SDS011;12163;49.316;6.092;2023-04-28T01:06:05;10.48;;;4.65;;
23952;SDS011;12163;49.316;6.092;2023-04-28T01:08:33;7.35;;;4.40;;
23952;SDS011;12163;49.316;6.092;2023-04-28T01:11:01;9.73;;;4.82;;
23952;SDS011;12163;49.316;6.092;2023-04-28T01:13:28;8.65;;;4.47;;
23952;SDS011;12163;49.316;6.092;2023-04-28T01:15:54;10.38;;;4.50;;
23952;SDS011;12163;49.316;6.092;2023-04-28T01:18:21;8.77;;;4.30;;
23952;SDS011;12163;49.316;6.092;2023-04-28T01:20:48;7.18;;;4.32;;
23952;SDS011;12163;49.316;6.092;2023-04-28T01:23:16;7.28;;;4.55;;
23952;SDS011;12163;49.316;6.092;2023-04-28T01:25:43;8.10;;;3.90;;
23952;SDS011;12163;49.316;6.092;2023-04-28T01:28:10;7.63;;;3.95;;
23952;SDS011;12163;49.316;6.092;2023-04-28T01:30:37;6.65;;;3.92;;
23952;SDS011;12163;49.316;6.092;2023-04-28T01:33:03;7.70;;;4.30;;
23952;SDS011;12163;49.316;6.092;2023-04-28T01:35:30;9.63;;;4.30;;
23952;SDS011;12163;49.316;6.092;2023-04-28T01:37:57;9.35;;;4.50;;
23952;SDS011;12163;49.316;6.092;2023-04-28T01:40:23;6.47;;;4.03;;
23952;SDS011;12163;49.316;6.092;2023-04-28T01:42:50;13.85;;;4.80;;
23952;SDS011;12163;49.316;6.092;2023-04-28T01:45:17;6.53;;;4.55;;
23952;SDS011;12163;49.316;6.092;2023-04-28T01:47:43;10.45;;;4.45;;
23952;SDS011;12163;49.316;6.092;2023-04-28T01:50:10;9.73;;;4.47;;
23952;SDS011;12163;49.316;6.092;2023-04-28T01:52:37;7.85;;;4.72;;
23952;SDS011;12163;49.316;6.092;2023-04-28T01:55:03;8.35;;;4.80;;
23952;SDS011;12163;49.316;6.092;2023-04-28T01:57:30;10.60;;;4.90;;
23952;SDS011;12163;49.316;6.092;2023-04-28T01:59:58;7.03;;;4.85;;
23952;SDS011;12163;49.316;6.092;2023-04-28T02:02:25;8.95;;;4.70;;
23952;SDS011;12163;49.316;6.092;2023-04-28T02:04:52;7.78;;;4.82;;
23952;SDS011;12163;49.316;6.092;2023-04-28T02:07:19;8.63;;;4.43;;
23952;SDS011;12163;49.316;6.092;2023-04-28T02:09:45;7.50;;;4.15;;
23952;SDS011;12163;49.316;6.092;2023-04-28T02:12:12;8.35;;;3.95;;
23952;SDS011;12163;49.316;6.092;2023-04-28T02:14:38;6.18;;;3.72;;
23952;SDS011;12163;49.316;6.092;2023-04-28T02:17:05;7.43;;;4.00;;
23952;SDS011;12163;49.316;6.092;2023-04-28T02:19:31;6.00;;;3.13;;
23952;SDS011;12163;49.316;6.092;2023-04-28T02:21:58;8.50;;;3.60;;
23952;SDS011;12163;49.316;6.092;2023-04-28T02:24:25;6.72;;;2.53;;
23952;SDS011;12163;49.316;6.092;2023-04-28T02:26:51;6.75;;;2.78;;
23952;SDS011;12163;49.316;6.092;2023-04-28T02:29:18;4.82;;;2.80;;
23952;SDS011;12163;49.316;6.092;2023-04-28T02:31:45;4.65;;;2.83;;
23952;SDS011;12163;49.316;6.092;2023-04-28T02:34:12;6.53;;;2.88;;
23952;SDS011;12163;49.316;6.092;2023-04-28T02:36:39;8.18;;;3.20;;
23952;SDS011;12163;49.316;6.092;2023-04-28T02:39:06;5.97;;;3.03;;
23952;SDS011;12163;49.316;6.092;2023-04-28T02:41:33;4.70;;;2.78;;
23952;SDS011;12163;49.316;6.092;2023-04-28T02:43:59;4.70;;;3.00;;
23952;SDS011;12163;49.316;6.092;2023-04-28T02:46:26;6.15;;;3.03;;
23952;SDS011;12163;49.316;6.092;2023-04-28T02:48:53;6.03;;;3.00;;
23952;SDS011;12163;49.316;6.092;2023-04-28T02:51:19;6.65;;;2.95;;
23952;SDS011;12163;49.316;6.092;2023-04-28T02:53:46;8.82;;;3.10;;
23952;SDS011;12163;49.316;6.092;2023-04-28T02:56:12;10.52;;;3.03;;
23952;SDS011;12163;49.316;6.092;2023-04-28T02:58:39;6.85;;;3.00;;
23952;SDS011;12163;49.316;6.092;2023-04-28T03:01:06;10.23;;;2.90;;
23952;SDS011;12163;49.316;6.092;2023-04-28T03:03:32;4.70;;;2.80;;
23952;SDS011;12163;49.316;6.092;2023-04-28T03:05:59;5.50;;;3.03;;
23952;SDS011;12163;49.316;6.092;2023-04-28T03:08:26;6.13;;;2.70;;
23952;SDS011;12163;49.316;6.092;2023-04-28T03:10:52;7.97;;;2.75;;
23952;SDS011;12163;49.316;6.092;2023-04-28T03:13:19;5.63;;;2.75;;
23952;SDS011;12163;49.316;6.092;2023-04-28T03:15:45;5.18;;;2.58;;
23952;SDS011;12163;49.316;6.092;2023-04-28T03:18:12;6.55;;;3.15;;
23952;SDS011;12163;49.316;6.092;2023-04-28T03:20:39;4.60;;;2.58;;
23952;SDS011;12163;49.316;6.092;2023-04-28T03:23:05;6.07;;;2.72;;
23952;SDS011;12163;49.316;6.092;2023-04-28T03:25:32;6.18;;;3.00;;
23952;SDS011;12163;49.316;6.092;2023-04-28T03:27:59;4.43;;;2.75;;
23952;SDS011;12163;49.316;6.092;2023-04-28T03:30:25;7.28;;;2.80;;
23952;SDS011;12163;49.316;6.092;2023-04-28T03:32:52;3.35;;;2.80;;
23952;SDS011;12163;49.316;6.092;2023-04-28T03:35:18;5.72;;;2.85;;
23952;SDS011;12163;49.316;6.092;2023-04-28T03:37:45;5.32;;;2.50;;
23952;SDS011;12163;49.316;6.092;2023-04-28T03:40:12;6.75;;;3.13;;
23952;SDS011;12163;49.316;6.092;2023-04-28T03:42:38;4.72;;;2.88;;
23952;SDS011;12163;49.316;6.092;2023-04-28T03:45:05;4.97;;;2.97;;
23952;SDS011;12163;49.316;6.092;2023-04-28T03:47:33;5.20;;;3.25;;
23952;SDS011;12163;49.316;6.092;2023-04-28T03:49:59;7.35;;;3.17;;
23952;SDS011;12163;49.316;6.092;2023-04-28T03:52:26;7.55;;;3.50;;
23952;SDS011;12163;49.316;6.092;2023-04-28T03:54:52;6.78;;;3.28;;
23952;SDS011;12163;49.316;6.092;2023-04-28T03:57:19;4.90;;;3.00;;
23952;SDS011;12163;49.316;6.092;2023-04-28T03:59:46;6.38;;;3.20;;
23952;SDS011;12163;49.316;6.092;2023-04-28T04:02:12;6.32;;;3.60;;
23952;SDS011;12163;49.316;6.092;2023-04-28T04:04:39;3.28;;;2.78;;
23952;SDS011;12163;49.316;6.092;2023-04-28T04:07:06;5.47;;;3.10;;
23952;SDS011;12163;49.316;6.092;2023-04-28T04:09:32;4.50;;;3.42;;
23952;SDS011;12163;49.316;6.092;2023-04-28T04:11:59;6.22;;;3.13;;
23952;SDS011;12163;49.316;6.092;2023-04-28T04:14:26;4.65;;;3.50;;
23952;SDS011;12163;49.316;6.092;2023-04-28T04:16:53;4.80;;;2.85;;
23952;SDS011;12163;49.316;6.092;2023-04-28T04:19:20;4.45;;;3.10;;
23952;SDS011;12163;49.316;6.092;2023-04-28T04:21:49;5.72;;;2.97;;
23952;SDS011;12163;49.316;6.092;2023-04-28T04:24:15;6.40;;;3.40;;
23952;SDS011;12163;49.316;6.092;2023-04-28T04:26:42;3.58;;;2.80;;
23952;SDS011;12163;49.316;6.092;2023-04-28T04:29:09;5.05;;;3.00;;
23952;SDS011;12163;49.316;6.092;2023-04-28T04:31:35;4.05;;;2.70;;
23952;SDS011;12163;49.316;6.092;2023-04-28T04:34:02;3.60;;;2.30;;
23952;SDS011;12163;49.316;6.092;2023-04-28T04:36:29;4.40;;;2.70;;
23952;SDS011;12163;49.316;6.092;2023-04-28T04:38:58;3.50;;;2.58;;
23952;SDS011;12163;49.316;6.092;2023-04-28T04:41:25;4.50;;;3.13;;
23952;SDS011;12163;49.316;6.092;2023-04-28T04:43:52;5.95;;;3.10;;
23952;SDS011;12163;49.316;6.092;2023-04-28T04:46:18;3.97;;;3.45;;
23952;SDS011;12163;49.316;6.092;2023-04-28T04:48:45;7.53;;;3.53;;
23952;SDS011;12163;49.316;6.092;2023-04-28T04:51:12;6.40;;;3.33;;
23952;SDS011;12163;49.316;6.092;2023-04-28T04:53:39;5.13;;;2.78;;
23952;SDS011;12163;49.316;6.092;2023-04-28T04:56:05;6.57;;;3.67;;
23952;SDS011;12163;49.316;6.092;2023-04-28T04:58:32;2.38;;;2.17;;
23952;SDS011;12163;49.316;6.092;2023-04-28T05:00:58;3.20;;;2.72;;
23952;SDS011;12163;49.316;6.092;2023-04-28T05:03:25;5.45;;;3.90;;
23952;SDS011;12163;49.316;6.092;2023-04-28T05:05:52;5.90;;;3.78;;
23952;SDS011;12163;49.316;6.092;2023-04-28T05:08:18;6.00;;;3.10;;
23952;SDS011;12163;49.316;6.092;2023-04-28T05:10:45;5.03;;;3.65;;
23952;SDS011;12163;49.316;6.092;2023-04-28T05:13:12;6.40;;;4.13;;
23952;SDS011;12163;49.316;6.092;2023-04-28T05:15:38;5.72;;;4.00;;
23952;SDS011;12163;49.316;6.092;2023-04-28T05:18:05;6.20;;;4.30;;
23952;SDS011;12163;49.316;6.092;2023-04-28T05:20:36;5.10;;;3.30;;
23952;SDS011;12163;49.316;6.092;2023-04-28T05:23:03;7.13;;;4.32;;
23952;SDS011;12163;49.316;6.092;2023-04-28T05:25:29;3.80;;;3.13;;
23952;SDS011;12163;49.316;6.092;2023-04-28T05:27:56;6.85;;;3.63;;
23952;SDS011;12163;49.316;6.092;2023-04-28T05:30:23;7.55;;;3.40;;
23952;SDS011;12163;49.316;6.092;2023-04-28T05:32:49;5.15;;;3.40;;
23952;SDS011;12163;49.316;6.092;2023-04-28T05:35:16;5.90;;;3.20;;
23952;SDS011;12163;49.316;6.092;2023-04-28T05:37:42;5.03;;;3.08;;
23952;SDS011;12163;49.316;6.092;2023-04-28T05:40:10;7.68;;;2.83;;
23952;SDS011;12163;49.316;6.092;2023-04-28T05:42:37;2.92;;;2.45;;
23952;SDS011;12163;49.316;6.092;2023-04-28T05:45:04;3.97;;;2.30;;
23952;SDS011;12163;49.316;6.092;2023-04-28T05:47:32;2.63;;;1.85;;
23952;SDS011;12163;49.316;6.092;2023-04-28T05:49:58;3.30;;;1.80;;
23952;SDS011;12163;49.316;6.092;2023-04-28T05:52:25;3.10;;;1.98;;
23952;SDS011;12163;49.316;6.092;2023-04-28T05:54:51;5.43;;;2.20;;
23952;SDS011;12163;49.316;6.092;2023-04-28T05:57:18;3.75;;;2.00;;
23952;SDS011;12163;49.316;6.092;2023-04-28T05:59:45;1.95;;;1.80;;
23952;SDS011;12163;49.316;6.092;2023-04-28T06:02:12;3.20;;;1.73;;
23952;SDS011;12163;49.316;6.092;2023-04-28T06:04:38;3.17;;;1.60;;
23952;SDS011;12163;49.316;6.092;2023-04-28T06:07:06;2.20;;;1.60;;
23952;SDS011;12163;49.316;6.092;2023-04-28T06:09:33;3.42;;;1.35;;
23952;SDS011;12163;49.316;6.092;2023-04-28T06:11:59;3.22;;;1.10;;
23952;SDS011;12163;49.316;6.092;2023-04-28T06:14:26;4.70;;;1.20;;
23952;SDS011;12163;49.316;6.092;2023-04-28T06:16:53;1.92;;;1.20;;
23952;SDS011;12163;49.316;6.092;2023-04-28T06:19:19;1.67;;;0.90;;
23952;SDS011;12163;49.316;6.092;2023-04-28T06:21:46;3.17;;;0.98;;
23952;SDS011;12163;49.316;6.092;2023-04-28T06:24:15;2.53;;;1.10;;
23952;SDS011;12163;49.316;6.092;2023-04-28T06:26:42;1.30;;;0.85;;
23952;SDS011;12163;49.316;6.092;2023-04-28T06:29:09;2.65;;;0.98;;
23952;SDS011;12163;49.316;6.092;2023-04-28T06:31:35;2.63;;;1.00;;
23952;SDS011;12163;49.316;6.092;2023-04-28T06:34:02;3.38;;;1.20;;
23952;SDS011;12163;49.316;6.092;2023-04-28T06:36:29;3.90;;;1.52;;
23952;SDS011;12163;49.316;6.092;2023-04-28T06:38:55;2.78;;;1.10;;
23952;SDS011;12163;49.316;6.092;2023-04-28T06:41:22;2.95;;;1.38;;
23952;SDS011;12163;49.316;6.092;2023-04-28T06:43:49;3.42;;;1.10;;
23952;SDS011;12163;49.316;6.092;2023-04-28T06:46:16;1.67;;;0.80;;
23952;SDS011;12163;49.316;6.092;2023-04-28T06:48:42;1.23;;;0.80;;
23952;SDS011;12163;49.316;6.092;2023-04-28T06:51:09;1.75;;;0.63;;
23952;SDS011;12163;49.316;6.092;2023-04-28T06:53:36;0.68;;;0.60;;
23952;SDS011;12163;49.316;6.092;2023-04-28T06:56:02;2.85;;;0.65;;
23952;SDS011;12163;49.316;6.092;2023-04-28T06:58:29;0.60;;;0.50;;
23952;SDS011;12163;49.316;6.092;2023-04-28T07:00:56;2.15;;;0.70;;
23952;SDS011;12163;49.316;6.092;2023-04-28T07:03:23;1.55;;;0.55;;
23952;SDS011;12163;49.316;6.092;2023-04-28T07:05:49;1.13;;;0.50;;
23952;SDS011;12163;49.316;6.092;2023-04-28T07:08:16;0.60;;;0.40;;
23952;SDS011;12163;49.316;6.092;2023-04-28T07:10:44;1.38;;;0.77;;
23952;SDS011;12163;49.316;6.092;2023-04-28T07:13:10;2.63;;;0.50;;
23952;SDS011;12163;49.316;6.092;2023-04-28T07:15:37;2.47;;;0.50;;
23952;SDS011;12163;49.316;6.092;2023-04-28T07:18:04;3.33;;;0.80;;
23952;SDS011;12163;49.316;6.092;2023-04-28T07:20:31;1.50;;;0.60;;
23952;SDS011;12163;49.316;6.092;2023-04-28T07:22:57;1.33;;;0.52;;
23952;SDS011;12163;49.316;6.092;2023-04-28T07:25:24;1.75;;;0.60;;
23952;SDS011;12163;49.316;6.092;2023-04-28T07:27:51;1.05;;;0.40;;
23952;SDS011;12163;49.316;6.092;2023-04-28T07:30:19;1.48;;;0.30;;
23952;SDS011;12163;49.316;6.092;2023-04-28T07:32:53;1.30;;;0.40;;
23952;SDS011;12163;49.316;6.092;2023-04-28T07:35:20;1.90;;;0.50;;
23952;SDS011;12163;49.316;6.092;2023-04-28T07:37:47;0.85;;;0.47;;
23952;SDS011;12163;49.316;6.092;2023-04-28T07:40:14;0.70;;;0.40;;
23952;SDS011;12163;49.316;6.092;2023-04-28T07:42:41;1.25;;;0.43;;
23952;SDS011;12163;49.316;6.092;2023-04-28T07:45:07;0.32;;;0.30;;
23952;SDS011;12163;49.316;6.092;2023-04-28T07:47:34;2.00;;;0.50;;
23952;SDS011;12163;49.316;6.092;2023-04-28T07:50:02;4.50;;;0.60;;
23952;SDS011;12163;49.316;6.092;2023-04-28T07:52:30;2.60;;;0.70;;
23952;SDS011;12163;49.316;6.092;2023-04-28T07:54:58;1.48;;;0.50;;
23952;SDS011;12163;49.316;6.092;2023-04-28T07:57:25;0.90;;;0.60;;
23952;SDS011;12163;49.316;6.092;2023-04-28T07:59:51;1.33;;;0.45;;
23952;SDS011;12163;49.316;6.092;2023-04-28T08:02:18;0.47;;;0.47;;
23952;SDS011;12163;49.316;6.092;2023-04-28T08:04:46;1.08;;;0.50;;
23952;SDS011;12163;49.316;6.092;2023-04-28T08:07:13;1.50;;;0.50;;
23952;SDS011;12163;49.316;6.092;2023-04-28T08:09:39;2.15;;;0.73;;
23952;SDS011;12163;49.316;6.092;2023-04-28T08:12:09;3.35;;;0.50;;
23952;SDS011;12163;49.316;6.092;2023-04-28T08:14:35;1.50;;;0.63;;
23952;SDS011;12163;49.316;6.092;2023-04-28T08:17:02;1.30;;;0.60;;
23952;SDS011;12163;49.316;6.092;2023-04-28T08:19:29;1.48;;;1.00;;
23952;SDS011;12163;49.316;6.092;2023-04-28T08:21:56;1.40;;;0.80;;
23952;SDS011;12163;49.316;6.092;2023-04-28T08:24:22;3.25;;;0.80;;
23952;SDS011;12163;49.316;6.092;2023-04-28T08:26:49;2.58;;;0.85;;
23952;SDS011;12163;49.316;6.092;2023-04-28T08:29:16;3.55;;;0.80;;
23952;SDS011;12163;49.316;6.092;2023-04-28T08:31:42;2.10;;;0.70;;
23952;SDS011;12163;49.316;6.092;2023-04-28T08:34:09;2.03;;;0.60;;
23952;SDS011;12163;49.316;6.092;2023-04-28T08:36:36;1.60;;;0.90;;
23952;SDS011;12163;49.316;6.092;2023-04-28T08:39:02;5.15;;;0.85;;
23952;SDS011;12163;49.316;6.092;2023-04-28T08:41:31;4.05;;;0.73;;
23952;SDS011;12163;49.316;6.092;2023-04-28T08:43:58;1.02;;;0.70;;
23952;SDS011;12163;49.316;6.092;2023-04-28T08:46:25;3.55;;;0.80;;
23952;SDS011;12163;49.316;6.092;2023-04-28T08:48:55;1.33;;;0.90;;
23952;SDS011;12163;49.316;6.092;2023-04-28T08:51:33;1.73;;;0.90;;
23952;SDS011;12163;49.316;6.092;2023-04-28T08:54:06;0.65;;;0.60;;
23952;SDS011;12163;49.316;6.092;2023-04-28T08:56:54;1.30;;;0.55;;
23952;SDS011;12163;49.316;6.092;2023-04-28T08:59:22;2.40;;;0.70;;
23952;SDS011;12163;49.316;6.092;2023-04-28T09:01:49;0.80;;;0.40;;
23952;SDS011;12163;49.316;6.092;2023-04-28T09:04:16;1.20;;;0.77;;
23952;SDS011;12163;49.316;6.092;2023-04-28T09:06:44;3.95;;;0.70;;
23952;SDS011;12163;49.316;6.092;2023-04-28T09:09:17;2.25;;;0.68;;
23952;SDS011;12163;49.316;6.092;2023-04-28T09:11:50;0.70;;;0.70;;
23952;SDS011;12163;49.316;6.092;2023-04-28T09:14:18;2.78;;;0.47;;
23952;SDS011;12163;49.316;6.092;2023-04-28T09:16:44;0.80;;;0.45;;
23952;SDS011;12163;49.316;6.092;2023-04-28T09:19:11;0.60;;;0.60;;
23952;SDS011;12163;49.316;6.092;2023-04-28T09:24:31;0.77;;;0.57;;
23952;SDS011;12163;49.316;6.092;2023-04-28T09:27:00;0.50;;;0.45;;
23952;SDS011;12163;49.316;6.092;2023-04-28T09:29:27;2.00;;;0.52;;
23952;SDS011;12163;49.316;6.092;2023-04-28T09:34:48;3.25;;;0.60;;
23952;SDS011;12163;49.316;6.092;2023-04-28T09:37:17;1.67;;;0.68;;
23952;SDS011;12163;49.316;6.092;2023-04-28T09:39:49;0.93;;;0.45;;
23952;SDS011;12163;49.316;6.092;2023-04-28T09:42:39;7.40;;;2.00;;
23952;SDS011;12163;49.316;6.092;2023-04-28T09:45:11;1.23;;;0.70;;
23952;SDS011;12163;49.316;6.092;2023-04-28T09:47:41;1.48;;;0.60;;
23952;SDS011;12163;49.316;6.092;2023-04-28T09:50:10;0.40;;;0.40;;
23952;SDS011;12163;49.316;6.092;2023-04-28T09:52:40;1.38;;;0.60;;
23952;SDS011;12163;49.316;6.092;2023-04-28T09:55:08;1.58;;;0.60;;
23952;SDS011;12163;49.316;6.092;2023-04-28T09:57:36;1.00;;;0.70;;
23952;SDS011;12163;49.316;6.092;2023-04-28T10:00:04;0.82;;;0.60;;
23952;SDS011;12163;49.316;6.092;2023-04-28T10:02:37;32.60;;;7.00;;
23952;SDS011;12163;49.316;6.092;2023-04-28T10:05:07;16.52;;;3.30;;
23952;SDS011;12163;49.316;6.092;2023-04-28T10:07:38;2.58;;;0.80;;
23952;SDS011;12163;49.316;6.092;2023-04-28T10:10:06;2.55;;;0.57;;
23952;SDS011;12163;49.316;6.092;2023-04-28T10:12:33;1.55;;;0.63;;
23952;SDS011;12163;49.316;6.092;2023-04-28T10:15:04;3.03;;;0.70;;
23952;SDS011;12163;49.316;6.092;2023-04-28T10:17:32;0.63;;;0.52;;
23952;SDS011;12163;49.316;6.092;2023-04-28T10:20:00;2.50;;;0.65;;
23952;SDS011;12163;49.316;6.092;2023-04-28T10:27:44;2.28;;;0.50;;
23952;SDS011;12163;49.316;6.092;2023-04-28T10:30:12;1.52;;;0.60;;
23952;SDS011;12163;49.316;6.092;2023-04-28T10:32:44;2.30;;;0.95;;
23952;SDS011;12163;49.316;6.092;2023-04-28T10:40:34;2.78;;;0.70;;
23952;SDS011;12163;49.316;6.092;2023-04-28T10:43:02;3.90;;;0.75;;
23952;SDS011;12163;49.316;6.092;2023-04-28T10:48:14;3.95;;;0.45;;
23952;SDS011;12163;49.316;6.092;2023-04-28T10:56:18;2.38;;;0.90;;
23952;SDS011;12163;49.316;6.092;2023-04-28T10:58:50;0.73;;;0.47;;
23952;SDS011;12163;49.316;6.092;2023-04-28T11:03:59;1.90;;;0.60;;
23952;SDS011;12163;49.316;6.092;2023-04-28T11:06:42;2.35;;;0.60;;
23952;SDS011;12163;49.316;6.092;2023-04-28T11:11:37;2.05;;;0.60;;
23952;SDS011;12163;49.316;6.092;2023-04-28T11:19:20;0.93;;;0.43;;
23952;SDS011;12163;49.316;6.092;2023-04-28T11:22:12;1.58;;;0.57;;
23952;SDS011;12163;49.316;6.092;2023-04-28T11:24:40;1.42;;;0.70;;
23952;SDS011;12163;49.316;6.092;2023-04-28T11:27:07;1.75;;;0.60;;
23952;SDS011;12163;49.316;6.092;2023-04-28T11:29:34;1.90;;;0.70;;
23952;SDS011;12163;49.316;6.092;2023-04-28T11:32:05;0.65;;;0.50;;
23952;SDS011;12163;49.316;6.092;2023-04-28T11:34:34;2.65;;;0.75;;
23952;SDS011;12163;49.316;6.092;2023-04-28T11:37:02;2.55;;;0.93;;
23952;SDS011;12163;49.316;6.092;2023-04-28T11:39:30;2.22;;;0.50;;
23952;SDS011;12163;49.316;6.092;2023-04-28T11:41:58;1.35;;;0.50;;
23952;SDS011;12163;49.316;6.092;2023-04-28T11:44:28;1.27;;;0.88;;
23952;SDS011;12163;49.316;6.092;2023-04-28T11:46:57;2.88;;;0.85;;
23952;SDS011;12163;49.316;6.092;2023-04-28T11:49:27;4.97;;;0.75;;
23952;SDS011;12163;49.316;6.092;2023-04-28T11:51:56;5.30;;;1.02;;
23952;SDS011;12163;49.316;6.092;2023-04-28T11:54:29;4.85;;;1.02;;
23952;SDS011;12163;49.316;6.092;2023-04-28T11:56:56;4.72;;;1.17;;
23952;SDS011;12163;49.316;6.092;2023-04-28T11:59:24;4.15;;;0.85;;
23952;SDS011;12163;49.316;6.092;2023-04-28T12:01:53;3.72;;;0.95;;
23952;SDS011;12163;49.316;6.092;2023-04-28T12:04:29;4.43;;;0.68;;
23952;SDS011;12163;49.316;6.092;2023-04-28T12:06:58;4.68;;;0.63;;
23952;SDS011;12163;49.316;6.092;2023-04-28T12:09:26;2.80;;;0.70;;
23952;SDS011;12163;49.316;6.092;2023-04-28T12:11:56;3.20;;;0.55;;
23952;SDS011;12163;49.316;6.092;2023-04-28T12:14:24;2.50;;;0.60;;
23952;SDS011;12163;49.316;6.092;2023-04-28T12:16:51;1.27;;;0.50;;
23952;SDS011;12163;49.316;6.092;2023-04-28T12:19:18;3.22;;;0.50;;
23952;SDS011;12163;49.316;6.092;2023-04-28T12:22:02;3.35;;;0.40;;
23952;SDS011;12163;49.316;6.092;2023-04-28T12:24:30;3.25;;;0.65;;
23952;SDS011;12163;49.316;6.092;2023-04-28T12:27:13;1.85;;;0.40;;
23952;SDS011;12163;49.316;6.092;2023-04-28T12:29:41;2.20;;;0.73;;
23952;SDS011;12163;49.316;6.092;2023-04-28T12:32:09;0.85;;;0.50;;
23952;SDS011;12163;49.316;6.092;2023-04-28T12:34:37;2.03;;;0.55;;
23952;SDS011;12163;49.316;6.092;2023-04-28T12:37:08;1.88;;;0.52;;
23952;SDS011;12163;49.316;6.092;2023-04-28T12:39:35;3.03;;;0.50;;
23952;SDS011;12163;49.316;6.092;2023-04-28T12:42:05;1.70;;;0.60;;
23952;SDS011;12163;49.316;6.092;2023-04-28T12:44:32;0.55;;;0.43;;
23952;SDS011;12163;49.316;6.092;2023-04-28T12:47:03;3.00;;;0.45;;
23952;SDS011;12163;49.316;6.092;2023-04-28T12:49:35;0.85;;;0.52;;
23952;SDS011;12163;49.316;6.092;2023-04-28T12:52:02;1.52;;;0.60;;
23952;SDS011;12163;49.316;6.092;2023-04-28T12:54:30;5.25;;;0.50;;
23952;SDS011;12163;49.316;6.092;2023-04-28T12:56:57;0.95;;;0.50;;
23952;SDS011;12163;49.316;6.092;2023-04-28T12:59:23;4.38;;;0.63;;
23952;SDS011;12163;49.316;6.092;2023-04-28T13:01:50;1.23;;;0.60;;
23952;SDS011;12163;49.316;6.092;2023-04-28T13:04:17;2.03;;;0.75;;
23952;SDS011;12163;49.316;6.092;2023-04-28T13:06:44;1.27;;;0.68;;
23952;SDS011;12163;49.316;6.092;2023-04-28T13:09:12;2.15;;;0.70;;
23952;SDS011;12163;49.316;6.092;2023-04-28T13:11:42;2.55;;;0.57;;
23952;SDS011;12163;49.316;6.092;2023-04-28T13:14:09;2.65;;;0.77;;
23952;SDS011;12163;49.316;6.092;2023-04-28T13:16:35;3.50;;;0.80;;
23952;SDS011;12163;49.316;6.092;2023-04-28T13:19:02;5.15;;;1.08;;
23952;SDS011;12163;49.316;6.092;2023-04-28T13:21:29;4.05;;;1.00;;
23952;SDS011;12163;49.316;6.092;2023-04-28T13:23:57;4.57;;;0.85;;
23952;SDS011;12163;49.316;6.092;2023-04-28T13:26:23;5.57;;;0.77;;
23952;SDS011;12163;49.316;6.092;2023-04-28T13:28:52;3.13;;;0.88;;
23952;SDS011;12163;49.316;6.092;2023-04-28T13:31:18;2.65;;;0.63;;
23952;SDS011;12163;49.316;6.092;2023-04-28T13:33:45;3.25;;;1.00;;
23952;SDS011;12163;49.316;6.092;2023-04-28T13:36:12;3.03;;;1.05;;
23952;SDS011;12163;49.316;6.092;2023-04-28T13:38:38;3.00;;;0.85;;
23952;SDS011;12163;49.316;6.092;2023-04-28T13:41:05;4.78;;;1.00;;
23952;SDS011;12163;49.316;6.092;2023-04-28T13:43:32;2.83;;;0.65;;
23952;SDS011;12163;49.316;6.092;2023-04-28T13:45:59;2.20;;;0.68;;
23952;SDS011;12163;49.316;6.092;2023-04-28T13:48:26;5.43;;;0.95;;
23952;SDS011;12163;49.316;6.092;2023-04-28T13:50:54;2.17;;;0.70;;
23952;SDS011;12163;49.316;6.092;2023-04-28T13:53:21;2.08;;;0.68;;
23952;SDS011;12163;49.316;6.092;2023-04-28T13:55:48;4.35;;;0.70;;
23952;SDS011;12163;49.316;6.092;2023-04-28T13:58:16;2.15;;;0.77;;
23952;SDS011;12163;49.316;6.092;2023-04-28T14:00:42;2.13;;;0.77;;
23952;SDS011;12163;49.316;6.092;2023-04-28T14:03:09;3.40;;;0.70;;
23952;SDS011;12163;49.316;6.092;2023-04-28T14:05:36;3.15;;;0.77;;
23952;SDS011;12163;49.316;6.092;2023-04-28T14:08:14;1.15;;;0.55;;
23952;SDS011;12163;49.316;6.092;2023-04-28T14:10:45;2.47;;;0.70;;
23952;SDS011;12163;49.316;6.092;2023-04-28T14:13:13;1.30;;;0.60;;
23952;SDS011;12163;49.316;6.092;2023-04-28T14:15:39;1.83;;;0.68;;
23952;SDS011;12163;49.316;6.092;2023-04-28T14:18:22;3.80;;;0.88;;
23952;SDS011;12163;49.316;6.092;2023-04-28T14:20:49;0.95;;;0.60;;
23952;SDS011;12163;49.316;6.092;2023-04-28T14:23:16;1.60;;;0.55;;
23952;SDS011;12163;49.316;6.092;2023-04-28T14:25:42;3.88;;;1.08;;
23952;SDS011;12163;49.316;6.092;2023-04-28T14:28:09;3.08;;;0.57;;
23952;SDS011;12163;49.316;6.092;2023-04-28T14:30:36;1.13;;;0.60;;
23952;SDS011;12163;49.316;6.092;2023-04-28T14:33:03;3.00;;;0.80;;
23952;SDS011;12163;49.316;6.092;2023-04-28T14:35:30;2.55;;;0.70;;
23952;SDS011;12163;49.316;6.092;2023-04-28T14:37:57;10.25;;;0.52;;
23952;SDS011;12163;49.316;6.092;2023-04-28T14:40:23;2.15;;;0.60;;
23952;SDS011;12163;49.316;6.092;2023-04-28T14:42:50;2.15;;;0.65;;
23952;SDS011;12163;49.316;6.092;2023-04-28T14:45:18;3.40;;;0.80;;
23952;SDS011;12163;49.316;6.092;2023-04-28T14:47:45;2.60;;;0.60;;
23952;SDS011;12163;49.316;6.092;2023-04-28T14:50:12;1.38;;;0.60;;
23952;SDS011;12163;49.316;6.092;2023-04-28T14:52:39;1.70;;;0.60;;
23952;SDS011;12163;49.316;6.092;2023-04-28T14:55:06;2.22;;;0.82;;
23952;SDS011;12163;49.316;6.092;2023-04-28T14:57:33;3.95;;;0.70;;
23952;SDS011;12163;49.316;6.092;2023-04-28T15:00:00;1.98;;;0.70;;
23952;SDS011;12163;49.316;6.092;2023-04-28T15:02:29;4.00;;;0.80;;
23952;SDS011;12163;49.316;6.092;2023-04-28T15:04:55;3.22;;;0.70;;
23952;SDS011;12163;49.316;6.092;2023-04-28T15:07:23;1.30;;;0.80;;
23952;SDS011;12163;49.316;6.092;2023-04-28T15:09:56;0.77;;;0.65;;
23952;SDS011;12163;49.316;6.092;2023-04-28T15:12:25;3.80;;;0.70;;
23952;SDS011;12163;49.316;6.092;2023-04-28T15:14:52;3.13;;;0.70;;
23952;SDS011;12163;49.316;6.092;2023-04-28T15:17:19;1.75;;;0.60;;
23952;SDS011;12163;49.316;6.092;2023-04-28T15:19:48;1.50;;;0.70;;
23952;SDS011;12163;49.316;6.092;2023-04-28T15:22:15;2.90;;;0.50;;
23952;SDS011;12163;49.316;6.092;2023-04-28T15:24:42;3.03;;;0.60;;
23952;SDS011;12163;49.316;6.092;2023-04-28T15:27:09;2.83;;;0.90;;
23952;SDS011;12163;49.316;6.092;2023-04-28T15:29:36;1.65;;;0.63;;